sensor_id;sensor_type;location;lat;lon;timestamp;temperature;humidity
33149;DHT22;19506;51.040;3.856;2023-07-13T00:01:40;24.40;99.90
33149;DHT22;19506;51.040;3.856;2023-07-13T00:04:06;24.40;99.90
33149;DHT22;19506;51.040;3.856;2023-07-13T00:06:31;24.40;99.90
33149;DHT22;19506;51.040;3.856;2023-07-13T00:08:59;24.40;99.90
33149;DHT22;19506;51.040;3.856;2023-07-13T00:11:24;24.30;99.90
33149;DHT22;19506;51.040;3.856;2023-07-13T00:13:51;24.30;99.90
33149;DHT22;19506;51.040;3.856;2023-07-13T00:16:16;24.30;99.90
33149;DHT22;19506;51.040;3.856;2023-07-13T00:18:44;24.30;99.90
33149;DHT22;19506;51.040;3.856;2023-07-13T00:21:10;24.30;99.90
33149;DHT22;19506;51.040;3.856;2023-07-13T00:23:38;24.30;99.90
33149;DHT22;19506;51.040;3.856;2023-07-13T00:26:06;24.20;99.90
33149;DHT22;19506;51.040;3.856;2023-07-13T00:28:32;24.20;99.90
33149;DHT22;19506;51.040;3.856;2023-07-13T00:30:58;24.20;99.90
33149;DHT22;19506;51.040;3.856;2023-07-13T00:33:24;24.20;99.90
33149;DHT22;19506;51.040;3.856;2023-07-13T00:35:50;24.20;99.90
33149;DHT22;19506;51.040;3.856;2023-07-13T00:38:16;24.20;99.90
33149;DHT22;19506;51.040;3.856;2023-07-13T00:40:42;24.20;99.90
33149;DHT22;19506;51.040;3.856;2023-07-13T00:43:19;24.20;99.90
33149;DHT22;19506;51.040;3.856;2023-07-13T00:48:13;24.20;99.90
33149;DHT22;19506;51.040;3.856;2023-07-13T00:50:40;24.20;99.90
33149;DHT22;19506;51.040;3.856;2023-07-13T00:53:07;24.20;99.90
33149;DHT22;19506;51.040;3.856;2023-07-13T00:55:34;24.20;99.90
33149;DHT22;19506;51.040;3.856;2023-07-13T00:58:01;24.20;99.90
33149;DHT22;19506;51.040;3.856;2023-07-13T01:00:29;24.20;99.90
33149;DHT22;19506;51.040;3.856;2023-07-13T01:02:55;24.20;99.90
33149;DHT22;19506;51.040;3.856;2023-07-13T01:05:22;24.10;99.90
33149;DHT22;19506;51.040;3.856;2023-07-13T01:07:50;24.20;99.90
33149;DHT22;19506;51.040;3.856;2023-07-13T01:10:17;24.20;99.90
33149;DHT22;19506;51.040;3.856;2023-07-13T01:12:43;24.20;99.90
33149;DHT22;19506;51.040;3.856;2023-07-13T01:17:59;24.10;99.90
33149;DHT22;19506;51.040;3.856;2023-07-13T01:20:25;24.10;99.90
33149;DHT22;19506;51.040;3.856;2023-07-13T01:22:51;24.10;99.90
33149;DHT22;19506;51.040;3.856;2023-07-13T01:25:17;24.10;99.90
33149;DHT22;19506;51.040;3.856;2023-07-13T01:27:42;24.10;99.90
33149;DHT22;19506;51.040;3.856;2023-07-13T01:30:08;24.10;99.90
33149;DHT22;19506;51.040;3.856;2023-07-13T01:32:34;24.10;99.90
33149;DHT22;19506;51.040;3.856;2023-07-13T01:35:02;24.10;99.90
33149;DHT22;19506;51.040;3.856;2023-07-13T01:37:28;24.10;99.90
33149;DHT22;19506;51.040;3.856;2023-07-13T01:39:59;24.10;99.90
33149;DHT22;19506;51.040;3.856;2023-07-13T01:42:24;24.10;99.90
33149;DHT22;19506;51.040;3.856;2023-07-13T01:44:50;24.10;99.90
33149;DHT22;19506;51.040;3.856;2023-07-13T01:47:16;24.10;99.90
33149;DHT22;19506;51.040;3.856;2023-07-13T01:49:41;24.00;99.90
33149;DHT22;19506;51.040;3.856;2023-07-13T01:52:07;24.00;99.90
33149;DHT22;19506;51.040;3.856;2023-07-13T01:54:33;24.00;99.90
33149;DHT22;19506;51.040;3.856;2023-07-13T01:56:59;24.00;99.90
33149;DHT22;19506;51.040;3.856;2023-07-13T01:59:25;24.00;99.90
33149;DHT22;19506;51.040;3.856;2023-07-13T02:01:51;24.00;99.90
33149;DHT22;19506;51.040;3.856;2023-07-13T02:04:16;24.00;99.90
33149;DHT22;19506;51.040;3.856;2023-07-13T02:06:42;24.00;99.90
33149;DHT22;19506;51.040;3.856;2023-07-13T02:09:08;24.00;99.90
33149;DHT22;19506;51.040;3.856;2023-07-13T02:11:33;24.00;99.90
33149;DHT22;19506;51.040;3.856;2023-07-13T02:14:00;24.00;99.90
33149;DHT22;19506;51.040;3.856;2023-07-13T02:16:30;24.00;99.90
33149;DHT22;19506;51.040;3.856;2023-07-13T02:18:56;24.00;99.90
33149;DHT22;19506;51.040;3.856;2023-07-13T02:21:23;24.00;99.90
33149;DHT22;19506;51.040;3.856;2023-07-13T02:23:49;24.00;99.90
33149;DHT22;19506;51.040;3.856;2023-07-13T02:26:15;23.90;99.90
33149;DHT22;19506;51.040;3.856;2023-07-13T02:28:40;24.00;99.90
33149;DHT22;19506;51.040;3.856;2023-07-13T02:31:09;23.90;99.90
33149;DHT22;19506;51.040;3.856;2023-07-13T02:33:35;23.90;99.90
33149;DHT22;19506;51.040;3.856;2023-07-13T02:36:01;23.90;99.90
33149;DHT22;19506;51.040;3.856;2023-07-13T02:38:27;23.90;99.90
33149;DHT22;19506;51.040;3.856;2023-07-13T02:40:53;23.90;99.90
33149;DHT22;19506;51.040;3.856;2023-07-13T02:43:19;23.90;99.90
33149;DHT22;19506;51.040;3.856;2023-07-13T02:45:45;23.90;99.90
33149;DHT22;19506;51.040;3.856;2023-07-13T02:48:13;23.90;99.90
33149;DHT22;19506;51.040;3.856;2023-07-13T02:50:39;23.90;99.90
33149;DHT22;19506;51.040;3.856;2023-07-13T02:53:04;23.90;99.90
33149;DHT22;19506;51.040;3.856;2023-07-13T02:55:30;23.90;99.90
33149;DHT22;19506;51.040;3.856;2023-07-13T02:57:55;23.90;99.90
33149;DHT22;19506;51.040;3.856;2023-07-13T03:00:22;23.90;99.90
33149;DHT22;19506;51.040;3.856;2023-07-13T03:02:48;23.90;99.90
33149;DHT22;19506;51.040;3.856;2023-07-13T03:05:14;23.80;99.90
33149;DHT22;19506;51.040;3.856;2023-07-13T03:07:40;23.80;99.90
33149;DHT22;19506;51.040;3.856;2023-07-13T03:10:06;23.80;99.90
33149;DHT22;19506;51.040;3.856;2023-07-13T03:12:32;23.80;99.90
33149;DHT22;19506;51.040;3.856;2023-07-13T03:14:58;23.80;99.90
33149;DHT22;19506;51.040;3.856;2023-07-13T03:17:24;23.90;99.90
33149;DHT22;19506;51.040;3.856;2023-07-13T03:19:49;23.90;99.90
33149;DHT22;19506;51.040;3.856;2023-07-13T03:22:17;23.90;99.90
33149;DHT22;19506;51.040;3.856;2023-07-13T03:24:43;23.80;99.90
33149;DHT22;19506;51.040;3.856;2023-07-13T03:27:09;23.80;99.90
33149;DHT22;19506;51.040;3.856;2023-07-13T03:29:35;23.80;99.90
33149;DHT22;19506;51.040;3.856;2023-07-13T03:32:00;23.80;99.90
33149;DHT22;19506;51.040;3.856;2023-07-13T03:34:26;23.80;99.90
33149;DHT22;19506;51.040;3.856;2023-07-13T03:36:54;23.80;99.90
33149;DHT22;19506;51.040;3.856;2023-07-13T03:39:20;23.80;99.90
33149;DHT22;19506;51.040;3.856;2023-07-13T03:41:46;23.80;99.90
33149;DHT22;19506;51.040;3.856;2023-07-13T03:44:12;23.80;99.90
33149;DHT22;19506;51.040;3.856;2023-07-13T03:46:37;23.80;99.90
33149;DHT22;19506;51.040;3.856;2023-07-13T03:49:05;23.80;99.90
33149;DHT22;19506;51.040;3.856;2023-07-13T03:51:31;23.80;99.90
33149;DHT22;19506;51.040;3.856;2023-07-13T03:53:57;23.80;99.90
33149;DHT22;19506;51.040;3.856;2023-07-13T03:56:23;23.80;99.90
33149;DHT22;19506;51.040;3.856;2023-07-13T03:58:49;23.70;99.90
33149;DHT22;19506;51.040;3.856;2023-07-13T04:01:17;23.80;99.90
33149;DHT22;19506;51.040;3.856;2023-07-13T04:03:43;23.70;99.90
33149;DHT22;19506;51.040;3.856;2023-07-13T04:06:16;23.70;99.90
33149;DHT22;19506;51.040;3.856;2023-07-13T04:08:48;23.70;99.90
33149;DHT22;19506;51.040;3.856;2023-07-13T04:11:14;23.70;99.90
33149;DHT22;19506;51.040;3.856;2023-07-13T04:13:40;23.70;99.90
33149;DHT22;19506;51.040;3.856;2023-07-13T04:16:06;23.70;99.90
33149;DHT22;19506;51.040;3.856;2023-07-13T04:18:32;23.70;99.90
33149;DHT22;19506;51.040;3.856;2023-07-13T04:20:58;23.70;99.90
33149;DHT22;19506;51.040;3.856;2023-07-13T04:23:23;23.70;99.90
33149;DHT22;19506;51.040;3.856;2023-07-13T04:25:52;23.70;99.90
33149;DHT22;19506;51.040;3.856;2023-07-13T04:28:22;23.70;99.90
33149;DHT22;19506;51.040;3.856;2023-07-13T04:30:49;23.70;99.90
33149;DHT22;19506;51.040;3.856;2023-07-13T04:33:14;23.70;99.90
33149;DHT22;19506;51.040;3.856;2023-07-13T04:35:42;23.70;99.90
33149;DHT22;19506;51.040;3.856;2023-07-13T04:38:08;23.70;99.90
33149;DHT22;19506;51.040;3.856;2023-07-13T04:40:36;23.70;99.90
33149;DHT22;19506;51.040;3.856;2023-07-13T04:43:02;23.60;99.90
33149;DHT22;19506;51.040;3.856;2023-07-13T04:45:28;23.60;99.90
33149;DHT22;19506;51.040;3.856;2023-07-13T04:47:53;23.60;99.90
33149;DHT22;19506;51.040;3.856;2023-07-13T04:50:19;23.60;99.90
33149;DHT22;19506;51.040;3.856;2023-07-13T04:52:51;23.70;99.90
33149;DHT22;19506;51.040;3.856;2023-07-13T04:55:18;23.70;99.90
33149;DHT22;19506;51.040;3.856;2023-07-13T04:57:44;23.70;99.90
33149;DHT22;19506;51.040;3.856;2023-07-13T05:00:11;23.70;99.90
33149;DHT22;19506;51.040;3.856;2023-07-13T05:02:38;23.70;99.90
33149;DHT22;19506;51.040;3.856;2023-07-13T05:05:05;23.60;99.90
33149;DHT22;19506;51.040;3.856;2023-07-13T05:07:31;23.60;99.90
33149;DHT22;19506;51.040;3.856;2023-07-13T05:09:59;23.70;99.90
33149;DHT22;19506;51.040;3.856;2023-07-13T05:12:25;23.60;99.90
33149;DHT22;19506;51.040;3.856;2023-07-13T05:14:51;23.60;99.90
33149;DHT22;19506;51.040;3.856;2023-07-13T05:17:17;23.60;99.90
33149;DHT22;19506;51.040;3.856;2023-07-13T05:19:43;23.60;99.90
33149;DHT22;19506;51.040;3.856;2023-07-13T05:22:08;23.60;99.90
33149;DHT22;19506;51.040;3.856;2023-07-13T05:24:34;23.60;99.90
33149;DHT22;19506;51.040;3.856;2023-07-13T05:27:00;23.60;99.90
33149;DHT22;19506;51.040;3.856;2023-07-13T05:29:25;23.60;99.90
33149;DHT22;19506;51.040;3.856;2023-07-13T05:31:51;23.60;99.90
33149;DHT22;19506;51.040;3.856;2023-07-13T05:34:17;23.60;99.90
33149;DHT22;19506;51.040;3.856;2023-07-13T05:36:43;23.70;99.90
33149;DHT22;19506;51.040;3.856;2023-07-13T05:39:08;23.60;99.90
33149;DHT22;19506;51.040;3.856;2023-07-13T05:41:36;23.60;99.90
33149;DHT22;19506;51.040;3.856;2023-07-13T05:44:01;23.60;99.90
33149;DHT22;19506;51.040;3.856;2023-07-13T05:46:27;23.60;99.90
33149;DHT22;19506;51.040;3.856;2023-07-13T05:48:53;23.60;99.90
33149;DHT22;19506;51.040;3.856;2023-07-13T05:51:18;23.60;99.90
33149;DHT22;19506;51.040;3.856;2023-07-13T05:53:44;23.60;99.90
33149;DHT22;19506;51.040;3.856;2023-07-13T05:56:10;23.60;99.90
33149;DHT22;19506;51.040;3.856;2023-07-13T05:58:35;23.60;99.90
33149;DHT22;19506;51.040;3.856;2023-07-13T06:01:04;23.60;99.90
33149;DHT22;19506;51.040;3.856;2023-07-13T06:03:31;23.60;99.90
33149;DHT22;19506;51.040;3.856;2023-07-13T06:05:57;23.60;99.90
33149;DHT22;19506;51.040;3.856;2023-07-13T06:08:22;23.60;99.90
33149;DHT22;19506;51.040;3.856;2023-07-13T06:10:48;23.60;99.90
33149;DHT22;19506;51.040;3.856;2023-07-13T06:13:14;23.60;99.90
33149;DHT22;19506;51.040;3.856;2023-07-13T06:15:39;23.60;99.90
33149;DHT22;19506;51.040;3.856;2023-07-13T06:18:05;23.60;99.90
33149;DHT22;19506;51.040;3.856;2023-07-13T06:20:33;23.60;99.90
33149;DHT22;19506;51.040;3.856;2023-07-13T06:23:00;23.60;99.90
33149;DHT22;19506;51.040;3.856;2023-07-13T06:25:27;23.50;99.90
33149;DHT22;19506;51.040;3.856;2023-07-13T06:27:52;23.50;99.90
33149;DHT22;19506;51.040;3.856;2023-07-13T06:30:18;23.50;99.90
33149;DHT22;19506;51.040;3.856;2023-07-13T06:32:44;23.50;99.90
33149;DHT22;19506;51.040;3.856;2023-07-13T06:35:09;23.50;99.90
33149;DHT22;19506;51.040;3.856;2023-07-13T06:37:38;23.50;99.90
33149;DHT22;19506;51.040;3.856;2023-07-13T06:40:04;23.50;99.90
33149;DHT22;19506;51.040;3.856;2023-07-13T06:42:30;23.60;99.90
33149;DHT22;19506;51.040;3.856;2023-07-13T06:44:55;23.60;99.90
33149;DHT22;19506;51.040;3.856;2023-07-13T06:47:21;23.50;99.90
33149;DHT22;19506;51.040;3.856;2023-07-13T06:49:46;23.60;99.90
33149;DHT22;19506;51.040;3.856;2023-07-13T06:52:12;23.50;99.90
33149;DHT22;19506;51.040;3.856;2023-07-13T06:54:38;23.60;99.90
33149;DHT22;19506;51.040;3.856;2023-07-13T06:57:04;23.50;99.90
33149;DHT22;19506;51.040;3.856;2023-07-13T06:59:29;23.50;99.90
33149;DHT22;19506;51.040;3.856;2023-07-13T07:01:55;23.50;99.90
33149;DHT22;19506;51.040;3.856;2023-07-13T07:04:21;23.50;99.90
33149;DHT22;19506;51.040;3.856;2023-07-13T07:06:47;23.60;99.90
33149;DHT22;19506;51.040;3.856;2023-07-13T07:09:12;23.60;99.90
33149;DHT22;19506;51.040;3.856;2023-07-13T07:11:38;23.50;99.90
33149;DHT22;19506;51.040;3.856;2023-07-13T07:14:04;23.50;99.90
33149;DHT22;19506;51.040;3.856;2023-07-13T07:16:30;23.60;99.90
33149;DHT22;19506;51.040;3.856;2023-07-13T07:18:55;23.50;99.90
33149;DHT22;19506;51.040;3.856;2023-07-13T07:21:21;23.50;99.90
33149;DHT22;19506;51.040;3.856;2023-07-13T07:23:48;23.50;99.90
33149;DHT22;19506;51.040;3.856;2023-07-13T07:26:14;23.50;99.90
33149;DHT22;19506;51.040;3.856;2023-07-13T07:28:40;23.50;99.90
33149;DHT22;19506;51.040;3.856;2023-07-13T07:31:06;23.50;99.90
33149;DHT22;19506;51.040;3.856;2023-07-13T07:33:33;23.50;99.90
33149;DHT22;19506;51.040;3.856;2023-07-13T07:36:00;23.50;99.90
33149;DHT22;19506;51.040;3.856;2023-07-13T07:38:26;23.50;99.90
33149;DHT22;19506;51.040;3.856;2023-07-13T07:40:53;23.50;99.90
33149;DHT22;19506;51.040;3.856;2023-07-13T07:43:19;23.50;99.90
33149;DHT22;19506;51.040;3.856;2023-07-13T07:45:45;23.50;99.90
33149;DHT22;19506;51.040;3.856;2023-07-13T07:48:11;23.50;99.90
33149;DHT22;19506;51.040;3.856;2023-07-13T07:50:37;23.50;99.90
33149;DHT22;19506;51.040;3.856;2023-07-13T07:53:04;23.50;99.90
33149;DHT22;19506;51.040;3.856;2023-07-13T07:55:33;23.50;99.90
33149;DHT22;19506;51.040;3.856;2023-07-13T07:58:00;23.50;99.90
33149;DHT22;19506;51.040;3.856;2023-07-13T08:00:26;23.50;99.90
33149;DHT22;19506;51.040;3.856;2023-07-13T08:02:52;23.50;99.90
33149;DHT22;19506;51.040;3.856;2023-07-13T08:05:18;23.50;99.90
33149;DHT22;19506;51.040;3.856;2023-07-13T08:07:43;23.50;99.90
33149;DHT22;19506;51.040;3.856;2023-07-13T08:10:09;23.50;99.90
33149;DHT22;19506;51.040;3.856;2023-07-13T08:12:36;23.50;99.90
33149;DHT22;19506;51.040;3.856;2023-07-13T08:15:02;23.50;99.90
33149;DHT22;19506;51.040;3.856;2023-07-13T08:17:28;23.50;99.90
33149;DHT22;19506;51.040;3.856;2023-07-13T08:19:53;23.50;99.90
33149;DHT22;19506;51.040;3.856;2023-07-13T08:22:19;23.50;99.90
33149;DHT22;19506;51.040;3.856;2023-07-13T08:24:45;23.50;99.90
33149;DHT22;19506;51.040;3.856;2023-07-13T08:27:11;23.50;99.90
33149;DHT22;19506;51.040;3.856;2023-07-13T08:29:37;23.50;99.90
33149;DHT22;19506;51.040;3.856;2023-07-13T08:32:05;23.50;99.90
33149;DHT22;19506;51.040;3.856;2023-07-13T08:34:31;23.50;99.90
33149;DHT22;19506;51.040;3.856;2023-07-13T08:36:57;23.50;99.90
33149;DHT22;19506;51.040;3.856;2023-07-13T08:39:22;23.50;99.90
33149;DHT22;19506;51.040;3.856;2023-07-13T08:41:52;23.50;99.90
33149;DHT22;19506;51.040;3.856;2023-07-13T08:44:36;23.40;99.90
33149;DHT22;19506;51.040;3.856;2023-07-13T08:47:06;23.50;99.90
33149;DHT22;19506;51.040;3.856;2023-07-13T08:49:33;23.50;99.90
33149;DHT22;19506;51.040;3.856;2023-07-13T08:52:04;23.50;99.90
33149;DHT22;19506;51.040;3.856;2023-07-13T08:54:35;23.50;99.90
33149;DHT22;19506;51.040;3.856;2023-07-13T08:57:09;23.50;99.90
33149;DHT22;19506;51.040;3.856;2023-07-13T08:59:36;23.50;99.90
33149;DHT22;19506;51.040;3.856;2023-07-13T09:05:15;23.50;99.90
33149;DHT22;19506;51.040;3.856;2023-07-13T09:10:27;23.50;99.90
33149;DHT22;19506;51.040;3.856;2023-07-13T09:15:34;23.50;99.90
33149;DHT22;19506;51.040;3.856;2023-07-13T09:18:16;23.50;99.90
33149;DHT22;19506;51.040;3.856;2023-07-13T09:20:50;23.50;99.90
33149;DHT22;19506;51.040;3.856;2023-07-13T09:23:21;23.50;99.90
33149;DHT22;19506;51.040;3.856;2023-07-13T09:25:54;23.50;99.90
33149;DHT22;19506;51.040;3.856;2023-07-13T09:28:27;23.50;99.90
33149;DHT22;19506;51.040;3.856;2023-07-13T09:31:03;23.50;99.90
33149;DHT22;19506;51.040;3.856;2023-07-13T09:33:30;23.40;99.90
33149;DHT22;19506;51.040;3.856;2023-07-13T09:35:57;23.40;99.90
33149;DHT22;19506;51.040;3.856;2023-07-13T09:38:28;23.40;99.90
33149;DHT22;19506;51.040;3.856;2023-07-13T09:46:34;23.40;99.90
33149;DHT22;19506;51.040;3.856;2023-07-13T09:49:00;23.40;99.90
33149;DHT22;19506;51.040;3.856;2023-07-13T09:51:25;23.40;99.90
33149;DHT22;19506;51.040;3.856;2023-07-13T09:53:51;23.40;99.90
33149;DHT22;19506;51.040;3.856;2023-07-13T09:56:27;23.40;99.90
33149;DHT22;19506;51.040;3.856;2023-07-13T09:58:53;23.40;99.90
33149;DHT22;19506;51.040;3.856;2023-07-13T10:01:36;23.40;99.90
33149;DHT22;19506;51.040;3.856;2023-07-13T10:04:11;23.40;99.90
33149;DHT22;19506;51.040;3.856;2023-07-13T10:06:39;23.40;99.90
33149;DHT22;19506;51.040;3.856;2023-07-13T10:09:08;23.40;99.90
33149;DHT22;19506;51.040;3.856;2023-07-13T10:11:36;23.40;99.90
33149;DHT22;19506;51.040;3.856;2023-07-13T10:14:15;23.40;99.90
33149;DHT22;19506;51.040;3.856;2023-07-13T10:16:43;23.40;99.90
33149;DHT22;19506;51.040;3.856;2023-07-13T10:19:19;23.40;99.90
33149;DHT22;19506;51.040;3.856;2023-07-13T10:24:25;23.30;99.90
33149;DHT22;19506;51.040;3.856;2023-07-13T10:27:23;23.40;99.90
33149;DHT22;19506;51.040;3.856;2023-07-13T10:30:01;23.40;99.90
33149;DHT22;19506;51.040;3.856;2023-07-13T10:32:27;23.40;99.90
33149;DHT22;19506;51.040;3.856;2023-07-13T10:34:53;23.40;99.90
33149;DHT22;19506;51.040;3.856;2023-07-13T10:37:44;23.40;99.90
33149;DHT22;19506;51.040;3.856;2023-07-13T10:40:18;23.30;99.90
33149;DHT22;19506;51.040;3.856;2023-07-13T10:42:48;23.30;99.90
33149;DHT22;19506;51.040;3.856;2023-07-13T10:45:18;23.30;99.90
33149;DHT22;19506;51.040;3.856;2023-07-13T10:47:45;23.30;99.90
33149;DHT22;19506;51.040;3.856;2023-07-13T10:50:20;23.30;99.90
33149;DHT22;19506;51.040;3.856;2023-07-13T10:52:49;23.30;99.90
33149;DHT22;19506;51.040;3.856;2023-07-13T10:58:31;23.30;99.90
33149;DHT22;19506;51.040;3.856;2023-07-13T11:03:38;23.30;99.90
33149;DHT22;19506;51.040;3.856;2023-07-13T11:18:48;23.30;99.90
33149;DHT22;19506;51.040;3.856;2023-07-13T11:21:23;23.30;99.90
33149;DHT22;19506;51.040;3.856;2023-07-13T11:24:03;23.40;99.90
33149;DHT22;19506;51.040;3.856;2023-07-13T11:31:59;23.50;99.90
33149;DHT22;19506;51.040;3.856;2023-07-13T11:34:35;23.50;99.90
33149;DHT22;19506;51.040;3.856;2023-07-13T11:37:02;23.50;99.90
33149;DHT22;19506;51.040;3.856;2023-07-13T11:39:41;23.50;99.90
33149;DHT22;19506;51.040;3.856;2023-07-13T11:42:13;23.50;99.90
33149;DHT22;19506;51.040;3.856;2023-07-13T11:44:58;23.60;99.90
33149;DHT22;19506;51.040;3.856;2023-07-13T11:47:26;23.50;99.90
33149;DHT22;19506;51.040;3.856;2023-07-13T11:49:55;23.50;99.90
33149;DHT22;19506;51.040;3.856;2023-07-13T11:52:36;23.50;99.90
33149;DHT22;19506;51.040;3.856;2023-07-13T11:55:13;23.50;99.90
33149;DHT22;19506;51.040;3.856;2023-07-13T11:57:53;23.50;99.90
33149;DHT22;19506;51.040;3.856;2023-07-13T12:00:23;23.60;99.90
33149;DHT22;19506;51.040;3.856;2023-07-13T12:02:51;23.60;99.90
33149;DHT22;19506;51.040;3.856;2023-07-13T12:05:19;23.50;99.90
33149;DHT22;19506;51.040;3.856;2023-07-13T12:07:46;23.50;99.90
33149;DHT22;19506;51.040;3.856;2023-07-13T12:10:26;23.50;99.90
33149;DHT22;19506;51.040;3.856;2023-07-13T12:12:56;23.40;99.90
33149;DHT22;19506;51.040;3.856;2023-07-13T12:15:27;23.40;99.90
33149;DHT22;19506;51.040;3.856;2023-07-13T12:17:56;23.40;99.90
33149;DHT22;19506;51.040;3.856;2023-07-13T12:20:37;23.40;99.90
33149;DHT22;19506;51.040;3.856;2023-07-13T12:23:22;23.50;99.90
33149;DHT22;19506;51.040;3.856;2023-07-13T12:25:49;23.50;99.90
33149;DHT22;19506;51.040;3.856;2023-07-13T12:28:28;23.60;99.90
33149;DHT22;19506;51.040;3.856;2023-07-13T12:30:59;23.70;99.90
33149;DHT22;19506;51.040;3.856;2023-07-13T12:33:28;23.90;99.90
33149;DHT22;19506;51.040;3.856;2023-07-13T12:35:53;23.90;99.90
33149;DHT22;19506;51.040;3.856;2023-07-13T12:38:19;23.90;99.90
33149;DHT22;19506;51.040;3.856;2023-07-13T12:40:50;24.00;99.90
33149;DHT22;19506;51.040;3.856;2023-07-13T12:43:17;23.90;99.90
33149;DHT22;19506;51.040;3.856;2023-07-13T12:45:59;24.10;99.90
33149;DHT22;19506;51.040;3.856;2023-07-13T12:48:26;24.00;99.90
33149;DHT22;19506;51.040;3.856;2023-07-13T12:50:54;23.90;99.90
33149;DHT22;19506;51.040;3.856;2023-07-13T12:53:23;23.80;99.90
33149;DHT22;19506;51.040;3.856;2023-07-13T12:55:58;23.80;99.90
33149;DHT22;19506;51.040;3.856;2023-07-13T12:58:40;23.80;99.90
33149;DHT22;19506;51.040;3.856;2023-07-13T13:01:13;23.70;99.90
33149;DHT22;19506;51.040;3.856;2023-07-13T13:03:40;23.70;99.90
33149;DHT22;19506;51.040;3.856;2023-07-13T13:08:41;23.70;99.90
33149;DHT22;19506;51.040;3.856;2023-07-13T13:11:08;23.80;99.90
33149;DHT22;19506;51.040;3.856;2023-07-13T13:13:35;23.80;99.90
33149;DHT22;19506;51.040;3.856;2023-07-13T13:19:15;23.70;99.90
33149;DHT22;19506;51.040;3.856;2023-07-13T13:21:43;23.60;99.90
33149;DHT22;19506;51.040;3.856;2023-07-13T13:24:14;23.60;99.90
33149;DHT22;19506;51.040;3.856;2023-07-13T13:26:40;23.60;99.90
33149;DHT22;19506;51.040;3.856;2023-07-13T13:29:14;23.60;99.90
33149;DHT22;19506;51.040;3.856;2023-07-13T13:31:42;23.50;99.90
33149;DHT22;19506;51.040;3.856;2023-07-13T13:34:10;23.50;99.90
33149;DHT22;19506;51.040;3.856;2023-07-13T13:36:36;23.50;99.90
33149;DHT22;19506;51.040;3.856;2023-07-13T13:39:04;23.50;99.90
33149;DHT22;19506;51.040;3.856;2023-07-13T13:41:31;23.50;99.90
33149;DHT22;19506;51.040;3.856;2023-07-13T13:43:57;23.50;99.90
33149;DHT22;19506;51.040;3.856;2023-07-13T13:46:24;23.50;99.90
33149;DHT22;19506;51.040;3.856;2023-07-13T13:48:50;23.50;99.90
33149;DHT22;19506;51.040;3.856;2023-07-13T13:51:21;23.60;99.90
33149;DHT22;19506;51.040;3.856;2023-07-13T13:53:47;23.60;99.90
33149;DHT22;19506;51.040;3.856;2023-07-13T13:56:14;23.60;99.90
33149;DHT22;19506;51.040;3.856;2023-07-13T13:58:40;23.60;99.90
33149;DHT22;19506;51.040;3.856;2023-07-13T14:01:21;23.60;99.90
33149;DHT22;19506;51.040;3.856;2023-07-13T14:03:49;23.60;99.90
33149;DHT22;19506;51.040;3.856;2023-07-13T14:06:17;23.60;99.90
33149;DHT22;19506;51.040;3.856;2023-07-13T14:08:42;23.60;99.90
33149;DHT22;19506;51.040;3.856;2023-07-13T14:11:13;23.60;99.90
33149;DHT22;19506;51.040;3.856;2023-07-13T14:13:43;23.60;99.90
33149;DHT22;19506;51.040;3.856;2023-07-13T14:16:14;23.60;99.90
33149;DHT22;19506;51.040;3.856;2023-07-13T14:18:40;23.50;99.90
33149;DHT22;19506;51.040;3.856;2023-07-13T14:21:15;23.60;99.90
33149;DHT22;19506;51.040;3.856;2023-07-13T14:23:43;23.60;99.90
33149;DHT22;19506;51.040;3.856;2023-07-13T14:26:20;23.60;99.90
33149;DHT22;19506;51.040;3.856;2023-07-13T14:28:48;23.50;99.90
33149;DHT22;19506;51.040;3.856;2023-07-13T14:31:16;23.50;99.90
33149;DHT22;19506;51.040;3.856;2023-07-13T14:33:43;23.50;99.90
33149;DHT22;19506;51.040;3.856;2023-07-13T14:38:46;23.50;99.90
33149;DHT22;19506;51.040;3.856;2023-07-13T14:41:12;23.50;99.90
33149;DHT22;19506;51.040;3.856;2023-07-13T14:43:37;23.50;99.90
33149;DHT22;19506;51.040;3.856;2023-07-13T14:46:03;23.50;99.90
33149;DHT22;19506;51.040;3.856;2023-07-13T14:48:30;23.50;99.90
33149;DHT22;19506;51.040;3.856;2023-07-13T14:50:57;23.50;99.90
33149;DHT22;19506;51.040;3.856;2023-07-13T14:53:25;23.50;99.90
33149;DHT22;19506;51.040;3.856;2023-07-13T14:55:53;23.50;99.90
33149;DHT22;19506;51.040;3.856;2023-07-13T14:58:19;23.60;99.90
33149;DHT22;19506;51.040;3.856;2023-07-13T15:00:45;23.60;99.90
33149;DHT22;19506;51.040;3.856;2023-07-13T15:03:23;23.50;99.90
33149;DHT22;19506;51.040;3.856;2023-07-13T15:05:49;23.50;99.90
33149;DHT22;19506;51.040;3.856;2023-07-13T15:08:15;23.50;99.90
33149;DHT22;19506;51.040;3.856;2023-07-13T15:10:41;23.50;99.90
33149;DHT22;19506;51.040;3.856;2023-07-13T15:13:18;23.50;99.90
33149;DHT22;19506;51.040;3.856;2023-07-13T15:15:47;23.50;99.90
33149;DHT22;19506;51.040;3.856;2023-07-13T15:18:18;23.30;99.90
33149;DHT22;19506;51.040;3.856;2023-07-13T15:20:45;23.50;99.90
33149;DHT22;19506;51.040;3.856;2023-07-13T15:23:13;23.50;99.90
33149;DHT22;19506;51.040;3.856;2023-07-13T15:25:41;23.60;99.90
33149;DHT22;19506;51.040;3.856;2023-07-13T15:28:08;23.70;99.90
33149;DHT22;19506;51.040;3.856;2023-07-13T15:30:41;23.70;99.90
33149;DHT22;19506;51.040;3.856;2023-07-13T15:33:14;23.80;99.90
33149;DHT22;19506;51.040;3.856;2023-07-13T15:35:40;23.80;99.90
33149;DHT22;19506;51.040;3.856;2023-07-13T15:38:20;23.80;99.90
33149;DHT22;19506;51.040;3.856;2023-07-13T15:40:47;23.90;99.90
33149;DHT22;19506;51.040;3.856;2023-07-13T15:43:14;23.90;99.90
33149;DHT22;19506;51.040;3.856;2023-07-13T15:45:41;23.90;99.90
33149;DHT22;19506;51.040;3.856;2023-07-13T15:48:20;23.90;99.90
33149;DHT22;19506;51.040;3.856;2023-07-13T15:51:00;23.90;99.90
33149;DHT22;19506;51.040;3.856;2023-07-13T15:53:33;23.90;99.90
33149;DHT22;19506;51.040;3.856;2023-07-13T15:55:59;23.90;99.90
33149;DHT22;19506;51.040;3.856;2023-07-13T15:58:25;24.20;99.90
33149;DHT22;19506;51.040;3.856;2023-07-13T16:00:52;24.40;99.90
33149;DHT22;19506;51.040;3.856;2023-07-13T16:03:19;24.40;99.90
33149;DHT22;19506;51.040;3.856;2023-07-13T16:05:45;24.50;99.90
33149;DHT22;19506;51.040;3.856;2023-07-13T16:08:33;24.50;99.90
33149;DHT22;19506;51.040;3.856;2023-07-13T16:11:01;24.50;99.90
33149;DHT22;19506;51.040;3.856;2023-07-13T16:13:28;24.40;99.90
33149;DHT22;19506;51.040;3.856;2023-07-13T16:15:53;24.20;99.90
33149;DHT22;19506;51.040;3.856;2023-07-13T16:18:22;24.20;99.90
33149;DHT22;19506;51.040;3.856;2023-07-13T16:20:48;24.20;99.90
33149;DHT22;19506;51.040;3.856;2023-07-13T16:23:16;24.30;99.90
33149;DHT22;19506;51.040;3.856;2023-07-13T16:25:42;24.20;99.90
33149;DHT22;19506;51.040;3.856;2023-07-13T16:28:11;24.20;99.90
33149;DHT22;19506;51.040;3.856;2023-07-13T16:30:37;24.20;99.90